createdAt,value
2022-08-14T00:01:13.638Z,100029.22
2022-08-14T00:06:27.736Z,100027.53
2022-08-14T00:11:32.211Z,100027.91
2022-08-14T00:16:40.364Z,100023.22
2022-08-14T00:21:44.494Z,100028.88
2022-08-14T00:26:47.331Z,100030.72
2022-08-14T00:31:56.610Z,100025.75
2022-08-14T00:36:59.398Z,100029.84
2022-08-14T00:42:02.233Z,100023.06
2022-08-14T00:47:10.637Z,100023.25
2022-08-14T00:52:18.321Z,100023.41
2022-08-14T00:57:25.778Z,100021.16
2022-08-14T01:02:31.884Z,100025.69
2022-08-14T01:07:38.953Z,100021.44
2022-08-14T01:12:54.471Z,100024.19
2022-08-14T01:18:19.981Z,100030.34
2022-08-14T01:23:23.860Z,100023.63
2022-08-14T01:28:47.158Z,100028.94
2022-08-14T01:33:59.721Z,100026.59
2022-08-14T01:39:12.915Z,100024.97
2022-08-14T01:44:33.079Z,100033.75
2022-08-14T01:49:45.781Z,100029.50
2022-08-14T01:54:58.297Z,100026.03
2022-08-14T02:00:00.960Z,100036.50
2022-08-14T02:05:08.604Z,100039.94
2022-08-14T02:10:13.029Z,100043.72
2022-08-14T02:15:21.895Z,100038.63
2022-08-14T02:20:24.309Z,100040.56
2022-08-14T02:25:30.026Z,100034.53
2022-08-14T02:30:34.843Z,100033.50
2022-08-14T02:35:43.247Z,100035.97
2022-08-14T02:40:45.662Z,100031.53
2022-08-14T02:45:48.878Z,100022.81
2022-08-14T02:50:53.533Z,100016.38
2022-08-14T02:55:56.486Z,100018.34
2022-08-14T03:01:07.157Z,100018.38
2022-08-14T03:06:10.396Z,100027.63
2022-08-14T03:11:13.225Z,100036.41
2022-08-14T03:16:26.691Z,100044.09
2022-08-14T03:21:31.535Z,100045.28
2022-08-14T03:26:36.977Z,100038.38
2022-08-14T03:31:43.294Z,100035.19
2022-08-14T03:37:37.401Z,100029.84
2022-08-14T03:42:19.458Z,100032.53
2022-08-14T03:47:22.092Z,100028.09
2022-08-14T03:52:48.140Z,100027.78
2022-08-14T03:58:00.483Z,100031.63
2022-08-14T04:03:06.536Z,100022.38
2022-08-14T04:08:29.845Z,100032.34
2022-08-14T04:13:34.046Z,100026.91
2022-08-14T04:18:42.353Z,100030.81
2022-08-14T04:23:49.084Z,100031.47
2022-08-14T04:29:13.915Z,100031.19
2022-08-14T04:34:27.154Z,100031.66
2022-08-14T04:39:57.043Z,100035.66
2022-08-14T04:45:00.689Z,100035.81
2022-08-14T04:50:06.042Z,100024.00
2022-08-14T04:55:08.688Z,100025.06
2022-08-14T05:00:16.037Z,100021.03
2022-08-14T05:05:21.151Z,100015.28
2022-08-14T05:10:26.194Z,100022.06
2022-08-14T05:15:36.578Z,100017.88
2022-08-14T05:21:56.396Z,100014.06
2022-08-14T05:26:18.209Z,100014.31
2022-08-14T05:31:21.202Z,100013.03
2022-08-14T05:36:25.107Z,100015.16
2022-08-14T05:41:33.668Z,100010.56
2022-08-14T05:46:50.691Z,100013.34
2022-08-14T05:51:53.068Z,100011.44
2022-08-14T05:56:55.949Z,100008.84
2022-08-14T06:01:58.341Z,100002.38
2022-08-14T06:07:00.809Z,99992.38
2022-08-14T06:12:04.398Z,99989.38
2022-08-14T06:17:07.791Z,100005.75
2022-08-14T06:22:10.312Z,99993.38
2022-08-14T06:27:15.219Z,99990.50
2022-08-14T06:32:37.763Z,99988.44
2022-08-14T06:37:44.155Z,99989.38
2022-08-14T06:42:49.513Z,99987.09
2022-08-14T06:47:52.315Z,99985.06
2022-08-14T06:52:55.823Z,99983.09
2022-08-14T06:57:58.265Z,99986.28
2022-08-14T07:03:19.440Z,99986.97
2022-08-14T07:08:28.719Z,99983.56
2022-08-14T07:13:32.625Z,99978.13
2022-08-14T07:18:35.969Z,99979.66
2022-08-14T07:23:39.981Z,99977.44
2022-08-14T07:28:43.507Z,99980.09
2022-08-14T07:33:50.057Z,99972.16
2022-08-14T07:38:53.403Z,99974.41
2022-08-14T07:43:57.799Z,99973.06
2022-08-14T07:49:00.305Z,99929.94
2022-08-14T07:54:04.422Z,99969.72
2022-08-14T07:59:15.318Z,99966.94
2022-08-14T08:04:24.522Z,99966.56
2022-08-14T08:09:32.496Z,99978.75
2022-08-14T08:14:55.226Z,99978.28
2022-08-14T08:19:57.966Z,99971.94
2022-08-14T08:25:00.774Z,99975.53
2022-08-14T08:30:10.266Z,99969.69
2022-08-14T08:35:18.562Z,99970.53
2022-08-14T08:40:31.420Z,99980.31
2022-08-14T08:45:36.256Z,99966.81
2022-08-14T08:55:44.662Z,99944.94
2022-08-14T09:00:54.118Z,99952.44
2022-08-14T09:05:58.750Z,99942.59
2022-08-14T09:11:02.783Z,99948.03
2022-08-14T09:16:24.800Z,99948.78
2022-08-14T09:21:31.348Z,99943.31
2022-08-14T09:26:34.795Z,99944.75
2022-08-14T09:31:42.978Z,99937.56
2022-08-14T09:37:11.268Z,99938.09
2022-08-14T09:42:33.626Z,99946.22
2022-08-14T09:48:04.117Z,99937.03
2022-08-14T09:53:17.733Z,99926.88
2022-08-14T09:58:22.850Z,99917.16
2022-08-14T10:03:33.925Z,99925.72
2022-08-14T10:08:44.231Z,99925.44
2022-08-14T10:13:55.657Z,99934.53
2022-08-14T10:19:09.258Z,99933.75
2022-08-14T10:24:23.360Z,99931.53
2022-08-14T10:29:34.756Z,99927.16
2022-08-14T10:34:40.985Z,99934.50
2022-08-14T10:40:01.320Z,99918.56
2022-08-14T10:45:21.478Z,99925.28
2022-08-14T10:50:31.877Z,99929.41
2022-08-14T10:55:45.410Z,99931.44
2022-08-14T11:00:56.710Z,99927.09
2022-08-14T11:06:01.330Z,99919.50
2022-08-14T11:11:05.599Z,99923.31
2022-08-14T11:16:08.982Z,99925.44
2022-08-14T11:21:15.174Z,99925.00
2022-08-14T11:26:19.179Z,99926.00
2022-08-14T11:31:23.985Z,99921.19
2022-08-14T11:36:57.327Z,99915.81
2022-08-14T11:41:56.037Z,99918.78
2022-08-14T11:46:58.608Z,99916.66
2022-08-14T11:52:01.439Z,99923.59
2022-08-14T11:57:05.986Z,99921.81
2022-08-14T12:02:09.274Z,99923.13
2022-08-14T12:07:32.120Z,99917.41
2022-08-14T12:12:38.135Z,99913.53
2022-08-14T12:17:49.679Z,99909.28
2022-08-14T12:22:54.973Z,99901.34
2022-08-14T12:28:01.520Z,99893.03
2022-08-14T12:33:05.628Z,99896.81
2022-08-14T12:38:20.942Z,99902.34
2022-08-14T12:43:24.800Z,99899.19
2022-08-14T12:48:31.656Z,99892.50
2022-08-14T12:53:39.980Z,99889.53
2022-08-14T12:58:51.601Z,99885.69
2022-08-14T13:04:13.193Z,99892.75
2022-08-14T13:09:16.437Z,99887.41
2022-08-14T13:14:29.621Z,99892.91
2022-08-14T13:19:33.067Z,99892.94
2022-08-14T13:24:37.802Z,99879.09
2022-08-14T13:29:47.156Z,99881.25
2022-08-14T13:34:49.943Z,99879.88
2022-08-14T13:39:57.100Z,99881.91
2022-08-14T13:45:01.576Z,99869.59
2022-08-14T13:50:07.704Z,99866.72
2022-08-14T13:55:13.528Z,99859.69
2022-08-14T14:00:17.849Z,99863.63
2022-08-14T14:05:21.077Z,99856.81
2022-08-14T14:10:28.207Z,99863.09
2022-08-14T14:15:48.382Z,99862.19
2022-08-14T14:20:53.987Z,99847.25
2022-08-14T14:25:57.436Z,99854.25
2022-08-14T14:31:05.840Z,99856.84
2022-08-14T14:36:11.071Z,99865.97
2022-08-14T14:41:15.270Z,99860.84
2022-08-14T14:46:18.834Z,99863.56
2022-08-14T14:51:22.348Z,99867.53
2022-08-14T14:56:50.514Z,99859.41
2022-08-14T15:01:50.029Z,99854.41
2022-08-14T15:06:53.294Z,99854.19
2022-08-14T15:11:57.813Z,99847.84
2022-08-14T15:17:01.007Z,99845.97
2022-08-14T15:22:04.274Z,99858.22
2022-08-14T15:27:06.944Z,99865.91
2022-08-14T15:32:10.794Z,99871.97
2022-08-14T15:37:16.531Z,99868.09
2022-08-14T15:42:20.609Z,99869.28
2022-08-14T15:47:28.449Z,99865.88
2022-08-14T15:52:35.272Z,99864.00
2022-08-14T15:57:38.304Z,99860.00
2022-08-14T16:02:40.790Z,99865.53
2022-08-14T16:07:44.972Z,99866.22
2022-08-14T16:12:48.030Z,99866.06
2022-08-14T16:17:51.556Z,99860.34
2022-08-14T16:23:10.418Z,99864.47
2022-08-14T16:28:28.670Z,99871.13
2022-08-14T16:33:58.766Z,99865.56
2022-08-14T16:38:56.736Z,99873.56
2022-08-14T16:44:21.561Z,99875.09
2022-08-14T16:50:03.076Z,99879.63
2022-08-14T16:54:51.926Z,99882.34
2022-08-14T16:59:57.610Z,99877.72
2022-08-14T17:05:20.895Z,99879.69
2022-08-14T17:10:28.026Z,99881.09
2022-08-14T17:15:31.951Z,99893.59
2022-08-14T17:21:00.474Z,99894.28
2022-08-14T17:25:57.492Z,99911.00
2022-08-14T17:36:25.241Z,99917.47
2022-08-14T17:41:32.887Z,99922.44
2022-08-14T17:46:43.545Z,99924.69
2022-08-14T17:51:56.693Z,99922.69
2022-08-14T17:57:02.785Z,99921.25
2022-08-14T18:02:16.787Z,99911.91
2022-08-14T18:07:59.970Z,99915.66
2022-08-14T18:12:47.485Z,99920.38
2022-08-14T18:17:52.866Z,99916.59
2022-08-14T18:22:56.704Z,99919.53
2022-08-14T18:28:01.669Z,99913.47
2022-08-14T18:33:15.696Z,99915.69
2022-08-14T18:38:25.829Z,99915.69
2022-08-14T18:43:45.879Z,99911.56
2022-08-14T18:49:15.866Z,99916.31
2022-08-14T18:54:29.895Z,99920.59
2022-08-14T18:59:40.250Z,99924.00
2022-08-14T19:04:44.820Z,99919.91
2022-08-14T19:09:59.165Z,99923.03
2022-08-14T19:15:07.704Z,99930.34
2022-08-14T19:20:11.751Z,99933.00
2022-08-14T19:25:34.080Z,99932.09
2022-08-14T19:30:37.143Z,99937.16
2022-08-14T19:35:48.607Z,99938.19
2022-08-14T19:40:53.335Z,99939.94
2022-08-14T19:45:56.277Z,99938.56
2022-08-14T19:51:02.477Z,99937.34
2022-08-14T19:56:05.228Z,99940.22
2022-08-14T20:01:08.778Z,99939.97
2022-08-14T20:06:12.321Z,99939.91
2022-08-14T20:12:00.251Z,99943.69
2022-08-14T20:17:06.392Z,99944.13
2022-08-14T20:22:36.565Z,99942.81
2022-08-14T20:27:44.283Z,99946.84
2022-08-14T20:32:48.277Z,99949.19
2022-08-14T20:38:30.694Z,99944.47
2022-08-14T20:43:44.352Z,99947.22
2022-08-14T20:49:02.511Z,99949.94
2022-08-14T20:54:14.476Z,99955.00
2022-08-14T20:59:28.952Z,99953.69
2022-08-14T21:04:36.064Z,99953.78
2022-08-14T21:10:05.441Z,99952.97
2022-08-14T21:15:20.519Z,99956.41
2022-08-14T21:20:29.007Z,99962.13
2022-08-14T21:25:32.116Z,99961.72
2022-08-14T21:30:51.469Z,99959.09
2022-08-14T21:35:55.965Z,99961.22
2022-08-14T21:40:58.479Z,99962.53
2022-08-14T21:46:01.747Z,99963.75
2022-08-14T21:51:54.072Z,99959.66
2022-08-14T21:56:38.961Z,99968.38
2022-08-14T22:02:01.780Z,99960.56
2022-08-14T22:07:06.892Z,99966.06
2022-08-14T22:12:10.322Z,99966.41
2022-08-14T22:17:17.112Z,99962.28
2022-08-14T22:22:20.137Z,99968.78
2022-08-14T22:27:22.732Z,99976.41
2022-08-14T22:32:35.304Z,99978.31
2022-08-14T22:38:32.594Z,99973.19
2022-08-14T22:43:11.846Z,99972.97
2022-08-14T22:48:18.854Z,99967.94
2022-08-14T22:53:22.017Z,99976.09
2022-08-14T22:58:31.392Z,99968.50
2022-08-14T23:03:39.001Z,99977.63
2022-08-14T23:08:57.536Z,99979.78
2022-08-14T23:14:05.682Z,99984.22
2022-08-14T23:19:15.068Z,99980.03
2022-08-14T23:24:26.872Z,99981.03
2022-08-14T23:29:31.355Z,99984.91
2022-08-14T23:34:39.502Z,99984.38
2022-08-14T23:39:50.740Z,99983.72
2022-08-14T23:44:55.812Z,99987.34
2022-08-14T23:50:01.242Z,99990.94
2022-08-14T23:55:11.165Z,99981.59
